sensor_id;sensor_type;location;lat;lon;timestamp;temperature;humidity
584;HTU21D;27024;54.068;12.116;2023-05-27T00:01:12;11.81;99.61
584;HTU21D;27024;54.068;12.116;2023-05-27T00:03:40;11.81;99.55
584;HTU21D;27024;54.068;12.116;2023-05-27T00:06:07;11.91;98.98
584;HTU21D;27024;54.068;12.116;2023-05-27T00:08:34;11.36;100.14
584;HTU21D;27024;54.068;12.116;2023-05-27T00:11:01;11.16;101.82
584;HTU21D;27024;54.068;12.116;2023-05-27T00:13:28;11.78;99.40
584;HTU21D;27024;54.068;12.116;2023-05-27T00:15:55;11.23;102.69
584;HTU21D;27024;54.068;12.116;2023-05-27T00:18:22;11.19;101.32
584;HTU21D;27024;54.068;12.116;2023-05-27T00:20:49;10.70;103.82
584;HTU21D;27024;54.068;12.116;2023-05-27T00:23:16;10.57;103.71
584;HTU21D;27024;54.068;12.116;2023-05-27T00:25:43;10.30;104.47
584;HTU21D;27024;54.068;12.116;2023-05-27T00:28:10;10.69;104.36
584;HTU21D;27024;54.068;12.116;2023-05-27T00:30:37;10.84;103.41
584;HTU21D;27024;54.068;12.116;2023-05-27T00:33:04;10.99;101.65
584;HTU21D;27024;54.068;12.116;2023-05-27T00:35:31;10.26;103.92
584;HTU21D;27024;54.068;12.116;2023-05-27T00:37:58;10.38;104.69
584;HTU21D;27024;54.068;12.116;2023-05-27T00:40:26;10.33;103.18
584;HTU21D;27024;54.068;12.116;2023-05-27T00:42:55;10.18;105.18
584;HTU21D;27024;54.068;12.116;2023-05-27T00:45:22;10.97;101.05
584;HTU21D;27024;54.068;12.116;2023-05-27T00:47:49;10.82;101.90
584;HTU21D;27024;54.068;12.116;2023-05-27T00:50:17;10.23;103.02
584;HTU21D;27024;54.068;12.116;2023-05-27T00:52:45;9.91;105.51
584;HTU21D;27024;54.068;12.116;2023-05-27T00:55:12;10.60;102.57
584;HTU21D;27024;54.068;12.116;2023-05-27T00:57:39;10.29;101.68
584;HTU21D;27024;54.068;12.116;2023-05-27T01:00:07;10.03;103.69
584;HTU21D;27024;54.068;12.116;2023-05-27T01:02:38;9.88;104.63
584;HTU21D;27024;54.068;12.116;2023-05-27T01:05:13;10.39;103.74
584;HTU21D;27024;54.068;12.116;2023-05-27T01:08:08;10.90;99.99
584;HTU21D;27024;54.068;12.116;2023-05-27T01:13:52;10.27;103.10
584;HTU21D;27024;54.068;12.116;2023-05-27T01:16:18;10.56;100.86
584;HTU21D;27024;54.068;12.116;2023-05-27T01:18:45;10.83;100.01
584;HTU21D;27024;54.068;12.116;2023-05-27T01:21:15;10.75;98.91
584;HTU21D;27024;54.068;12.116;2023-05-27T01:23:47;10.73;99.26
584;HTU21D;27024;54.068;12.116;2023-05-27T01:26:14;10.41;99.94
584;HTU21D;27024;54.068;12.116;2023-05-27T01:28:42;9.60;103.63
584;HTU21D;27024;54.068;12.116;2023-05-27T01:31:16;9.75;104.49
584;HTU21D;27024;54.068;12.116;2023-05-27T01:33:53;9.96;101.51
584;HTU21D;27024;54.068;12.116;2023-05-27T01:36:24;9.24;104.81
584;HTU21D;27024;54.068;12.116;2023-05-27T01:38:52;9.15;105.23
584;HTU21D;27024;54.068;12.116;2023-05-27T01:41:20;9.33;105.04
584;HTU21D;27024;54.068;12.116;2023-05-27T01:43:49;9.86;101.41
584;HTU21D;27024;54.068;12.116;2023-05-27T01:46:17;9.74;101.27
584;HTU21D;27024;54.068;12.116;2023-05-27T01:48:44;10.38;99.67
584;HTU21D;27024;54.068;12.116;2023-05-27T01:51:11;9.65;101.60
584;HTU21D;27024;54.068;12.116;2023-05-27T01:53:38;8.93;105.99
584;HTU21D;27024;54.068;12.116;2023-05-27T01:56:05;8.76;107.11
584;HTU21D;27024;54.068;12.116;2023-05-27T01:58:32;8.63;108.32
584;HTU21D;27024;54.068;12.116;2023-05-27T02:00:58;8.63;108.50
584;HTU21D;27024;54.068;12.116;2023-05-27T02:03:25;8.67;108.88
584;HTU21D;27024;54.068;12.116;2023-05-27T02:05:54;8.64;109.21
584;HTU21D;27024;54.068;12.116;2023-05-27T02:08:21;8.67;109.16
584;HTU21D;27024;54.068;12.116;2023-05-27T02:10:48;8.51;110.13
584;HTU21D;27024;54.068;12.116;2023-05-27T02:13:15;8.60;110.11
584;HTU21D;27024;54.068;12.116;2023-05-27T02:15:41;8.59;110.40
584;HTU21D;27024;54.068;12.116;2023-05-27T02:18:08;8.53;110.34
584;HTU21D;27024;54.068;12.116;2023-05-27T02:20:36;8.48;110.33
584;HTU21D;27024;54.068;12.116;2023-05-27T02:23:06;8.47;109.69
584;HTU21D;27024;54.068;12.116;2023-05-27T02:25:33;8.38;109.23
584;HTU21D;27024;54.068;12.116;2023-05-27T02:28:00;8.22;109.84
584;HTU21D;27024;54.068;12.116;2023-05-27T02:30:30;8.20;110.29
584;HTU21D;27024;54.068;12.116;2023-05-27T02:32:58;8.22;110.31
584;HTU21D;27024;54.068;12.116;2023-05-27T02:35:25;8.22;110.16
584;HTU21D;27024;54.068;12.116;2023-05-27T02:37:51;8.21;109.90
584;HTU21D;27024;54.068;12.116;2023-05-27T02:40:26;8.07;110.53
584;HTU21D;27024;54.068;12.116;2023-05-27T02:42:53;8.02;111.18
584;HTU21D;27024;54.068;12.116;2023-05-27T02:45:19;8.02;110.83
584;HTU21D;27024;54.068;12.116;2023-05-27T02:47:46;8.05;110.59
584;HTU21D;27024;54.068;12.116;2023-05-27T02:50:13;8.03;110.30
584;HTU21D;27024;54.068;12.116;2023-05-27T02:52:40;7.91;111.52
584;HTU21D;27024;54.068;12.116;2023-05-27T02:55:07;7.97;111.16
584;HTU21D;27024;54.068;12.116;2023-05-27T02:57:34;7.91;111.13
584;HTU21D;27024;54.068;12.116;2023-05-27T03:00:03;7.92;110.94
584;HTU21D;27024;54.068;12.116;2023-05-27T03:02:30;7.88;111.20
584;HTU21D;27024;54.068;12.116;2023-05-27T03:04:57;7.87;111.26
584;HTU21D;27024;54.068;12.116;2023-05-27T03:07:24;7.84;110.76
584;HTU21D;27024;54.068;12.116;2023-05-27T03:09:51;7.90;110.38
584;HTU21D;27024;54.068;12.116;2023-05-27T03:12:18;7.78;110.99
584;HTU21D;27024;54.068;12.116;2023-05-27T03:14:45;7.81;111.36
584;HTU21D;27024;54.068;12.116;2023-05-27T03:17:12;7.70;111.61
584;HTU21D;27024;54.068;12.116;2023-05-27T03:19:38;7.79;111.33
584;HTU21D;27024;54.068;12.116;2023-05-27T03:22:06;7.75;111.17
584;HTU21D;27024;54.068;12.116;2023-05-27T03:24:33;7.75;111.39
584;HTU21D;27024;54.068;12.116;2023-05-27T03:27:00;7.71;111.83
584;HTU21D;27024;54.068;12.116;2023-05-27T03:29:28;7.74;111.90
584;HTU21D;27024;54.068;12.116;2023-05-27T03:31:54;7.74;111.58
584;HTU21D;27024;54.068;12.116;2023-05-27T03:34:22;7.73;111.60
584;HTU21D;27024;54.068;12.116;2023-05-27T03:36:49;7.82;111.32
584;HTU21D;27024;54.068;12.116;2023-05-27T03:39:17;7.82;111.44
584;HTU21D;27024;54.068;12.116;2023-05-27T03:41:43;7.69;111.29
584;HTU21D;27024;54.068;12.116;2023-05-27T03:44:11;7.73;111.62
584;HTU21D;27024;54.068;12.116;2023-05-27T03:46:37;7.84;111.13
584;HTU21D;27024;54.068;12.116;2023-05-27T03:49:04;7.83;111.19
584;HTU21D;27024;54.068;12.116;2023-05-27T03:51:32;7.85;111.37
584;HTU21D;27024;54.068;12.116;2023-05-27T03:53:58;7.84;111.71
584;HTU21D;27024;54.068;12.116;2023-05-27T03:56:25;7.84;111.98
584;HTU21D;27024;54.068;12.116;2023-05-27T03:58:52;7.87;111.86
584;HTU21D;27024;54.068;12.116;2023-05-27T04:01:19;7.94;111.77
584;HTU21D;27024;54.068;12.116;2023-05-27T04:03:47;7.93;112.51
584;HTU21D;27024;54.068;12.116;2023-05-27T04:06:14;7.93;114.35
584;HTU21D;27024;54.068;12.116;2023-05-27T04:08:42;8.05;113.74
584;HTU21D;27024;54.068;12.116;2023-05-27T04:11:12;8.02;114.09
584;HTU21D;27024;54.068;12.116;2023-05-27T04:13:39;8.14;113.74
584;HTU21D;27024;54.068;12.116;2023-05-27T04:16:06;8.19;113.86
584;HTU21D;27024;54.068;12.116;2023-05-27T04:18:34;8.14;113.75
584;HTU21D;27024;54.068;12.116;2023-05-27T04:21:02;8.28;113.39
584;HTU21D;27024;54.068;12.116;2023-05-27T04:23:29;8.17;114.25
584;HTU21D;27024;54.068;12.116;2023-05-27T04:25:56;8.37;115.05
584;HTU21D;27024;54.068;12.116;2023-05-27T04:28:23;8.56;114.01
584;HTU21D;27024;54.068;12.116;2023-05-27T04:30:49;8.41;116.32
584;HTU21D;27024;54.068;12.116;2023-05-27T04:33:17;8.58;114.96
584;HTU21D;27024;54.068;12.116;2023-05-27T04:35:44;8.38;116.83
584;HTU21D;27024;54.068;12.116;2023-05-27T04:38:11;8.72;116.89
584;HTU21D;27024;54.068;12.116;2023-05-27T04:40:43;9.26;114.28
584;HTU21D;27024;54.068;12.116;2023-05-27T04:43:13;9.04;114.84
584;HTU21D;27024;54.068;12.116;2023-05-27T04:45:41;9.54;113.71
584;HTU21D;27024;54.068;12.116;2023-05-27T04:48:10;9.78;112.25
584;HTU21D;27024;54.068;12.116;2023-05-27T04:50:37;9.53;113.70
584;HTU21D;27024;54.068;12.116;2023-05-27T04:53:04;9.79;114.33
584;HTU21D;27024;54.068;12.116;2023-05-27T04:55:33;10.00;115.02
584;HTU21D;27024;54.068;12.116;2023-05-27T04:58:01;10.50;112.97
584;HTU21D;27024;54.068;12.116;2023-05-27T05:00:31;10.81;110.89
584;HTU21D;27024;54.068;12.116;2023-05-27T05:03:05;10.71;111.32
584;HTU21D;27024;54.068;12.116;2023-05-27T05:05:34;11.23;108.69
584;HTU21D;27024;54.068;12.116;2023-05-27T05:08:01;11.42;107.75
584;HTU21D;27024;54.068;12.116;2023-05-27T05:10:29;11.70;106.86
584;HTU21D;27024;54.068;12.116;2023-05-27T05:12:56;11.87;105.81
584;HTU21D;27024;54.068;12.116;2023-05-27T05:15:23;12.11;104.92
584;HTU21D;27024;54.068;12.116;2023-05-27T05:17:50;12.34;104.11
584;HTU21D;27024;54.068;12.116;2023-05-27T05:20:17;12.44;103.63
584;HTU21D;27024;54.068;12.116;2023-05-27T05:22:44;12.58;103.61
584;HTU21D;27024;54.068;12.116;2023-05-27T05:25:11;12.79;102.17
584;HTU21D;27024;54.068;12.116;2023-05-27T05:27:38;13.00;101.95
584;HTU21D;27024;54.068;12.116;2023-05-27T05:30:05;12.84;103.26
584;HTU21D;27024;54.068;12.116;2023-05-27T05:32:32;13.23;100.95
584;HTU21D;27024;54.068;12.116;2023-05-27T05:34:59;13.35;101.06
584;HTU21D;27024;54.068;12.116;2023-05-27T05:37:26;13.23;101.32
584;HTU21D;27024;54.068;12.116;2023-05-27T05:39:56;13.22;102.60
584;HTU21D;27024;54.068;12.116;2023-05-27T05:42:23;13.67;100.38
584;HTU21D;27024;54.068;12.116;2023-05-27T05:44:53;13.81;99.51
584;HTU21D;27024;54.068;12.116;2023-05-27T05:47:19;13.74;99.22
584;HTU21D;27024;54.068;12.116;2023-05-27T05:49:47;13.85;99.10
584;HTU21D;27024;54.068;12.116;2023-05-27T05:52:13;13.95;96.13
584;HTU21D;27024;54.068;12.116;2023-05-27T05:54:40;13.97;94.53
584;HTU21D;27024;54.068;12.116;2023-05-27T05:57:07;14.41;93.18
584;HTU21D;27024;54.068;12.116;2023-05-27T05:59:34;14.22;94.52
584;HTU21D;27024;54.068;12.116;2023-05-27T06:02:01;14.37;91.43
584;HTU21D;27024;54.068;12.116;2023-05-27T06:04:28;14.47;91.93
584;HTU21D;27024;54.068;12.116;2023-05-27T06:06:55;14.54;92.72
584;HTU21D;27024;54.068;12.116;2023-05-27T06:09:24;14.60;92.43
584;HTU21D;27024;54.068;12.116;2023-05-27T06:11:52;14.55;91.86
584;HTU21D;27024;54.068;12.116;2023-05-27T06:14:19;14.71;89.03
584;HTU21D;27024;54.068;12.116;2023-05-27T06:16:46;14.54;89.50
584;HTU21D;27024;54.068;12.116;2023-05-27T06:19:13;14.60;79.69
584;HTU21D;27024;54.068;12.116;2023-05-27T06:21:39;14.58;78.93
584;HTU21D;27024;54.068;12.116;2023-05-27T06:24:07;14.80;81.00
584;HTU21D;27024;54.068;12.116;2023-05-27T06:26:34;14.81;79.85
584;HTU21D;27024;54.068;12.116;2023-05-27T06:29:00;14.87;78.82
584;HTU21D;27024;54.068;12.116;2023-05-27T06:31:27;14.95;79.88
584;HTU21D;27024;54.068;12.116;2023-05-27T06:33:54;15.48;77.18
584;HTU21D;27024;54.068;12.116;2023-05-27T06:36:21;15.26;78.12
584;HTU21D;27024;54.068;12.116;2023-05-27T06:38:48;15.23;78.65
584;HTU21D;27024;54.068;12.116;2023-05-27T06:41:15;15.46;76.17
584;HTU21D;27024;54.068;12.116;2023-05-27T06:43:42;15.56;78.65
584;HTU21D;27024;54.068;12.116;2023-05-27T06:46:09;15.67;69.67
584;HTU21D;27024;54.068;12.116;2023-05-27T06:48:36;15.85;67.79
584;HTU21D;27024;54.068;12.116;2023-05-27T06:51:03;15.95;65.36
584;HTU21D;27024;54.068;12.116;2023-05-27T06:53:30;16.20;64.63
584;HTU21D;27024;54.068;12.116;2023-05-27T06:55:56;16.22;64.53
584;HTU21D;27024;54.068;12.116;2023-05-27T06:58:23;16.46;62.15
584;HTU21D;27024;54.068;12.116;2023-05-27T07:00:50;16.29;60.27
584;HTU21D;27024;54.068;12.116;2023-05-27T07:03:17;16.35;63.15
584;HTU21D;27024;54.068;12.116;2023-05-27T07:05:44;16.36;60.50
584;HTU21D;27024;54.068;12.116;2023-05-27T07:08:12;16.20;60.47
584;HTU21D;27024;54.068;12.116;2023-05-27T07:10:39;15.78;62.57
584;HTU21D;27024;54.068;12.116;2023-05-27T07:13:06;16.07;62.55
584;HTU21D;27024;54.068;12.116;2023-05-27T07:15:33;16.46;62.05
584;HTU21D;27024;54.068;12.116;2023-05-27T07:17:59;16.88;59.17
584;HTU21D;27024;54.068;12.116;2023-05-27T07:20:26;17.63;56.58
584;HTU21D;27024;54.068;12.116;2023-05-27T07:22:53;17.90;57.82
584;HTU21D;27024;54.068;12.116;2023-05-27T07:25:20;17.59;53.98
584;HTU21D;27024;54.068;12.116;2023-05-27T07:27:47;18.26;52.24
584;HTU21D;27024;54.068;12.116;2023-05-27T07:30:14;18.30;51.40
584;HTU21D;27024;54.068;12.116;2023-05-27T07:32:41;18.72;49.69
584;HTU21D;27024;54.068;12.116;2023-05-27T07:35:09;19.11;48.76
584;HTU21D;27024;54.068;12.116;2023-05-27T07:37:35;19.13;48.74
584;HTU21D;27024;54.068;12.116;2023-05-27T07:40:02;18.53;48.82
584;HTU21D;27024;54.068;12.116;2023-05-27T07:42:30;18.66;49.24
584;HTU21D;27024;54.068;12.116;2023-05-27T07:44:59;18.05;50.63
584;HTU21D;27024;54.068;12.116;2023-05-27T07:47:26;17.53;53.03
584;HTU21D;27024;54.068;12.116;2023-05-27T07:49:53;17.51;55.51
584;HTU21D;27024;54.068;12.116;2023-05-27T07:52:20;17.92;54.62
584;HTU21D;27024;54.068;12.116;2023-05-27T07:54:47;17.65;53.84
584;HTU21D;27024;54.068;12.116;2023-05-27T07:57:21;17.56;54.13
584;HTU21D;27024;54.068;12.116;2023-05-27T07:59:48;17.39;54.81
584;HTU21D;27024;54.068;12.116;2023-05-27T08:02:15;17.41;55.93
584;HTU21D;27024;54.068;12.116;2023-05-27T08:04:42;17.26;55.52
584;HTU21D;27024;54.068;12.116;2023-05-27T08:07:10;17.34;57.79
584;HTU21D;27024;54.068;12.116;2023-05-27T08:09:37;17.29;55.89
584;HTU21D;27024;54.068;12.116;2023-05-27T08:12:04;17.31;56.13
584;HTU21D;27024;54.068;12.116;2023-05-27T08:14:34;17.18;57.31
584;HTU21D;27024;54.068;12.116;2023-05-27T08:17:01;16.88;58.82
584;HTU21D;27024;54.068;12.116;2023-05-27T08:19:28;16.77;60.44
584;HTU21D;27024;54.068;12.116;2023-05-27T08:21:56;16.88;59.77
584;HTU21D;27024;54.068;12.116;2023-05-27T08:24:24;16.87;60.41
584;HTU21D;27024;54.068;12.116;2023-05-27T08:26:51;16.79;59.20
584;HTU21D;27024;54.068;12.116;2023-05-27T08:29:18;16.84;60.12
584;HTU21D;27024;54.068;12.116;2023-05-27T08:31:45;17.07;60.79
584;HTU21D;27024;54.068;12.116;2023-05-27T08:34:13;16.81;61.93
584;HTU21D;27024;54.068;12.116;2023-05-27T08:36:39;16.72;61.70
584;HTU21D;27024;54.068;12.116;2023-05-27T08:39:06;16.96;63.55
584;HTU21D;27024;54.068;12.116;2023-05-27T08:41:34;16.91;60.28
584;HTU21D;27024;54.068;12.116;2023-05-27T08:44:01;16.70;58.22
584;HTU21D;27024;54.068;12.116;2023-05-27T08:46:48;17.41;58.53
584;HTU21D;27024;54.068;12.116;2023-05-27T08:49:16;17.95;55.66
584;HTU21D;27024;54.068;12.116;2023-05-27T08:51:45;18.27;54.59
584;HTU21D;27024;54.068;12.116;2023-05-27T08:54:12;18.52;55.09
584;HTU21D;27024;54.068;12.116;2023-05-27T08:56:39;17.84;55.64
584;HTU21D;27024;54.068;12.116;2023-05-27T08:59:06;18.29;55.16
584;HTU21D;27024;54.068;12.116;2023-05-27T09:01:34;18.81;52.16
584;HTU21D;27024;54.068;12.116;2023-05-27T09:04:02;19.26;53.11
584;HTU21D;27024;54.068;12.116;2023-05-27T09:06:29;20.07;50.64
584;HTU21D;27024;54.068;12.116;2023-05-27T09:08:56;19.02;48.73
584;HTU21D;27024;54.068;12.116;2023-05-27T09:11:24;19.11;51.99
584;HTU21D;27024;54.068;12.116;2023-05-27T09:13:55;19.43;52.71
584;HTU21D;27024;54.068;12.116;2023-05-27T09:16:23;18.95;52.97
584;HTU21D;27024;54.068;12.116;2023-05-27T09:18:50;19.00;55.94
584;HTU21D;27024;54.068;12.116;2023-05-27T09:21:17;18.73;56.58
584;HTU21D;27024;54.068;12.116;2023-05-27T09:23:45;18.19;55.69
584;HTU21D;27024;54.068;12.116;2023-05-27T09:26:12;18.18;56.14
584;HTU21D;27024;54.068;12.116;2023-05-27T09:28:40;18.25;57.39
584;HTU21D;27024;54.068;12.116;2023-05-27T09:31:08;18.97;57.19
584;HTU21D;27024;54.068;12.116;2023-05-27T09:33:39;18.42;60.47
584;HTU21D;27024;54.068;12.116;2023-05-27T09:36:07;18.37;61.92
584;HTU21D;27024;54.068;12.116;2023-05-27T09:38:38;17.88;63.87
584;HTU21D;27024;54.068;12.116;2023-05-27T09:41:05;18.11;63.26
584;HTU21D;27024;54.068;12.116;2023-05-27T09:43:32;18.10;62.82
584;HTU21D;27024;54.068;12.116;2023-05-27T09:48:31;19.70;57.53
584;HTU21D;27024;54.068;12.116;2023-05-27T09:51:03;19.85;59.25
584;HTU21D;27024;54.068;12.116;2023-05-27T09:53:30;20.31;57.70
584;HTU21D;27024;54.068;12.116;2023-05-27T09:55:58;21.05;54.49
584;HTU21D;27024;54.068;12.116;2023-05-27T09:58:25;21.61;50.47
584;HTU21D;27024;54.068;12.116;2023-05-27T10:00:55;21.23;48.92
584;HTU21D;27024;54.068;12.116;2023-05-27T10:03:22;21.13;48.40
584;HTU21D;27024;54.068;12.116;2023-05-27T10:05:51;21.22;46.95
584;HTU21D;27024;54.068;12.116;2023-05-27T10:08:19;21.51;44.77
584;HTU21D;27024;54.068;12.116;2023-05-27T10:10:49;22.16;45.45
584;HTU21D;27024;54.068;12.116;2023-05-27T10:13:18;21.24;48.28
584;HTU21D;27024;54.068;12.116;2023-05-27T10:15:50;20.93;50.03
584;HTU21D;27024;54.068;12.116;2023-05-27T10:18:26;20.56;51.05
584;HTU21D;27024;54.068;12.116;2023-05-27T10:20:56;19.90;49.18
584;HTU21D;27024;54.068;12.116;2023-05-27T10:23:28;19.85;50.11
584;HTU21D;27024;54.068;12.116;2023-05-27T10:26:06;19.79;50.69
584;HTU21D;27024;54.068;12.116;2023-05-27T10:28:38;19.54;52.91
584;HTU21D;27024;54.068;12.116;2023-05-27T10:31:19;19.20;54.75
584;HTU21D;27024;54.068;12.116;2023-05-27T10:33:49;19.00;57.10
584;HTU21D;27024;54.068;12.116;2023-05-27T10:36:26;18.80;55.34
584;HTU21D;27024;54.068;12.116;2023-05-27T10:39:01;18.85;55.88
584;HTU21D;27024;54.068;12.116;2023-05-27T10:41:41;18.81;55.96
584;HTU21D;27024;54.068;12.116;2023-05-27T10:44:09;19.89;50.11
584;HTU21D;27024;54.068;12.116;2023-05-27T10:46:43;21.04;48.05
584;HTU21D;27024;54.068;12.116;2023-05-27T10:49:21;19.82;50.07
584;HTU21D;27024;54.068;12.116;2023-05-27T10:51:49;19.88;50.05
584;HTU21D;27024;54.068;12.116;2023-05-27T10:54:16;19.94;50.67
584;HTU21D;27024;54.068;12.116;2023-05-27T10:56:56;19.84;50.50
584;HTU21D;27024;54.068;12.116;2023-05-27T10:59:22;19.97;50.53
584;HTU21D;27024;54.068;12.116;2023-05-27T11:01:53;20.43;50.05
584;HTU21D;27024;54.068;12.116;2023-05-27T11:04:20;21.16;46.36
584;HTU21D;27024;54.068;12.116;2023-05-27T11:07:01;21.37;44.80
584;HTU21D;27024;54.068;12.116;2023-05-27T11:09:31;21.77;43.35
584;HTU21D;27024;54.068;12.116;2023-05-27T11:12:13;21.84;42.93
584;HTU21D;27024;54.068;12.116;2023-05-27T11:14:51;22.22;43.54
584;HTU21D;27024;54.068;12.116;2023-05-27T11:17:19;22.50;42.23
584;HTU21D;27024;54.068;12.116;2023-05-27T11:19:46;22.85;40.95
584;HTU21D;27024;54.068;12.116;2023-05-27T11:22:14;22.42;40.39
584;HTU21D;27024;54.068;12.116;2023-05-27T11:24:41;22.51;42.05
584;HTU21D;27024;54.068;12.116;2023-05-27T11:27:14;22.87;39.81
584;HTU21D;27024;54.068;12.116;2023-05-27T11:29:49;23.75;39.26
584;HTU21D;27024;54.068;12.116;2023-05-27T11:32:18;23.87;37.13
584;HTU21D;27024;54.068;12.116;2023-05-27T11:34:45;23.75;35.55
584;HTU21D;27024;54.068;12.116;2023-05-27T11:37:13;23.28;38.44
584;HTU21D;27024;54.068;12.116;2023-05-27T11:39:50;24.02;35.98
584;HTU21D;27024;54.068;12.116;2023-05-27T11:42:22;24.21;37.69
584;HTU21D;27024;54.068;12.116;2023-05-27T11:44:51;24.21;36.05
584;HTU21D;27024;54.068;12.116;2023-05-27T11:47:19;24.03;36.42
584;HTU21D;27024;54.068;12.116;2023-05-27T11:49:48;23.91;34.88
584;HTU21D;27024;54.068;12.116;2023-05-27T11:52:15;23.89;37.34
584;HTU21D;27024;54.068;12.116;2023-05-27T11:54:42;24.41;36.77
584;HTU21D;27024;54.068;12.116;2023-05-27T11:57:23;24.41;36.24
584;HTU21D;27024;54.068;12.116;2023-05-27T11:59:50;24.09;37.38
584;HTU21D;27024;54.068;12.116;2023-05-27T12:02:17;24.10;36.69
584;HTU21D;27024;54.068;12.116;2023-05-27T12:04:47;24.69;36.79
584;HTU21D;27024;54.068;12.116;2023-05-27T12:07:14;25.16;34.39
584;HTU21D;27024;54.068;12.116;2023-05-27T12:09:47;24.62;35.54
584;HTU21D;27024;54.068;12.116;2023-05-27T12:12:20;24.41;35.31
584;HTU21D;27024;54.068;12.116;2023-05-27T12:14:47;24.66;35.20
584;HTU21D;27024;54.068;12.116;2023-05-27T12:17:14;24.18;34.54
584;HTU21D;27024;54.068;12.116;2023-05-27T12:19:41;24.39;35.99
584;HTU21D;27024;54.068;12.116;2023-05-27T12:22:07;24.27;35.04
584;HTU21D;27024;54.068;12.116;2023-05-27T12:24:34;24.18;34.98
584;HTU21D;27024;54.068;12.116;2023-05-27T12:27:01;24.29;35.21
584;HTU21D;27024;54.068;12.116;2023-05-27T12:29:28;24.26;36.23
584;HTU21D;27024;54.068;12.116;2023-05-27T12:31:57;24.70;34.60
584;HTU21D;27024;54.068;12.116;2023-05-27T12:34:24;24.24;34.47
584;HTU21D;27024;54.068;12.116;2023-05-27T12:36:52;24.33;34.95
584;HTU21D;27024;54.068;12.116;2023-05-27T12:39:19;24.16;36.37
584;HTU21D;27024;54.068;12.116;2023-05-27T12:41:47;23.96;36.34
584;HTU21D;27024;54.068;12.116;2023-05-27T12:44:14;24.60;34.95
584;HTU21D;27024;54.068;12.116;2023-05-27T12:46:42;24.30;35.00
584;HTU21D;27024;54.068;12.116;2023-05-27T12:49:09;24.51;35.10
584;HTU21D;27024;54.068;12.116;2023-05-27T12:51:37;24.82;35.63
584;HTU21D;27024;54.068;12.116;2023-05-27T12:54:05;24.10;34.63
584;HTU21D;27024;54.068;12.116;2023-05-27T12:56:31;23.74;36.10
584;HTU21D;27024;54.068;12.116;2023-05-27T12:58:58;24.11;35.69
584;HTU21D;27024;54.068;12.116;2023-05-27T13:01:26;24.01;35.88
584;HTU21D;27024;54.068;12.116;2023-05-27T13:03:53;23.99;36.21
584;HTU21D;27024;54.068;12.116;2023-05-27T13:06:22;23.68;35.46
584;HTU21D;27024;54.068;12.116;2023-05-27T13:08:49;24.13;36.10
584;HTU21D;27024;54.068;12.116;2023-05-27T13:11:16;24.24;36.37
584;HTU21D;27024;54.068;12.116;2023-05-27T13:13:43;24.26;35.70
584;HTU21D;27024;54.068;12.116;2023-05-27T13:16:10;24.01;35.37
584;HTU21D;27024;54.068;12.116;2023-05-27T13:18:37;24.46;35.03
584;HTU21D;27024;54.068;12.116;2023-05-27T13:21:04;24.19;35.75
584;HTU21D;27024;54.068;12.116;2023-05-27T13:23:33;24.09;34.41
584;HTU21D;27024;54.068;12.116;2023-05-27T13:26:00;24.16;35.33
584;HTU21D;27024;54.068;12.116;2023-05-27T13:28:27;24.78;34.82
584;HTU21D;27024;54.068;12.116;2023-05-27T13:30:54;24.86;34.50
584;HTU21D;27024;54.068;12.116;2023-05-27T13:33:21;24.12;35.25
584;HTU21D;27024;54.068;12.116;2023-05-27T13:35:48;24.38;35.21
584;HTU21D;27024;54.068;12.116;2023-05-27T13:38:15;24.27;34.34
584;HTU21D;27024;54.068;12.116;2023-05-27T13:40:43;24.71;34.84
584;HTU21D;27024;54.068;12.116;2023-05-27T13:43:10;24.30;34.03
584;HTU21D;27024;54.068;12.116;2023-05-27T13:45:36;24.70;34.89
584;HTU21D;27024;54.068;12.116;2023-05-27T13:48:03;24.39;34.03
584;HTU21D;27024;54.068;12.116;2023-05-27T13:50:30;24.51;34.47
584;HTU21D;27024;54.068;12.116;2023-05-27T13:52:58;24.51;33.67
584;HTU21D;27024;54.068;12.116;2023-05-27T13:55:25;24.83;34.43
584;HTU21D;27024;54.068;12.116;2023-05-27T13:57:52;24.65;34.54
584;HTU21D;27024;54.068;12.116;2023-05-27T14:00:18;24.79;33.84
584;HTU21D;27024;54.068;12.116;2023-05-27T14:02:45;24.61;34.20
584;HTU21D;27024;54.068;12.116;2023-05-27T14:05:12;24.71;35.16
584;HTU21D;27024;54.068;12.116;2023-05-27T14:07:40;25.12;34.15
584;HTU21D;27024;54.068;12.116;2023-05-27T14:10:09;25.22;33.08
584;HTU21D;27024;54.068;12.116;2023-05-27T14:12:36;24.32;34.42
584;HTU21D;27024;54.068;12.116;2023-05-27T14:15:04;24.47;33.55
584;HTU21D;27024;54.068;12.116;2023-05-27T14:17:30;24.59;33.59
584;HTU21D;27024;54.068;12.116;2023-05-27T14:19:58;24.62;34.21
584;HTU21D;27024;54.068;12.116;2023-05-27T14:22:24;24.86;33.86
584;HTU21D;27024;54.068;12.116;2023-05-27T14:24:51;25.02;34.27
584;HTU21D;27024;54.068;12.116;2023-05-27T14:27:18;24.68;34.43
584;HTU21D;27024;54.068;12.116;2023-05-27T14:29:45;24.71;34.28
584;HTU21D;27024;54.068;12.116;2023-05-27T14:32:12;24.87;34.00
584;HTU21D;27024;54.068;12.116;2023-05-27T14:34:39;25.00;33.52
584;HTU21D;27024;54.068;12.116;2023-05-27T14:37:06;25.02;33.68
584;HTU21D;27024;54.068;12.116;2023-05-27T14:39:35;24.72;33.53
584;HTU21D;27024;54.068;12.116;2023-05-27T14:42:02;24.85;34.39
584;HTU21D;27024;54.068;12.116;2023-05-27T14:44:31;24.46;34.86
584;HTU21D;27024;54.068;12.116;2023-05-27T14:46:58;24.57;34.63
584;HTU21D;27024;54.068;12.116;2023-05-27T14:49:25;23.41;35.60
584;HTU21D;27024;54.068;12.116;2023-05-27T14:51:52;24.20;34.47
584;HTU21D;27024;54.068;12.116;2023-05-27T14:54:18;24.19;35.29
584;HTU21D;27024;54.068;12.116;2023-05-27T14:56:46;24.54;34.57
584;HTU21D;27024;54.068;12.116;2023-05-27T14:59:13;24.30;35.04
584;HTU21D;27024;54.068;12.116;2023-05-27T15:01:40;24.44;34.07
584;HTU21D;27024;54.068;12.116;2023-05-27T15:04:07;24.43;33.97
584;HTU21D;27024;54.068;12.116;2023-05-27T15:06:34;24.27;35.32
584;HTU21D;27024;54.068;12.116;2023-05-27T15:09:02;24.34;35.10
584;HTU21D;27024;54.068;12.116;2023-05-27T15:11:29;24.33;35.50
584;HTU21D;27024;54.068;12.116;2023-05-27T15:13:57;24.30;35.37
584;HTU21D;27024;54.068;12.116;2023-05-27T15:16:29;24.65;32.74
584;HTU21D;27024;54.068;12.116;2023-05-27T15:18:56;23.85;35.03
584;HTU21D;27024;54.068;12.116;2023-05-27T15:21:27;24.12;35.42
584;HTU21D;27024;54.068;12.116;2023-05-27T15:23:53;24.02;35.22
584;HTU21D;27024;54.068;12.116;2023-05-27T15:26:22;24.05;34.50
584;HTU21D;27024;54.068;12.116;2023-05-27T15:28:49;23.50;36.53
584;HTU21D;27024;54.068;12.116;2023-05-27T15:31:16;23.22;35.71
584;HTU21D;27024;54.068;12.116;2023-05-27T15:33:43;23.97;35.89
584;HTU21D;27024;54.068;12.116;2023-05-27T15:36:10;23.96;35.73
584;HTU21D;27024;54.068;12.116;2023-05-27T15:38:36;23.99;34.83
584;HTU21D;27024;54.068;12.116;2023-05-27T15:41:03;23.84;35.63